sensor_id;sensor_type;location;lat;lon;timestamp;pressure;altitude;pressure_sealevel;temperature;humidity
4398;BME280;2213;49.720;7.296;2024-01-30T00:02:14;99377.75;;;1.43;100.00
4398;BME280;2213;49.720;7.296;2024-01-30T00:04:42;99379.94;;;1.49;100.00
4398;BME280;2213;49.720;7.296;2024-01-30T00:07:11;99376.44;;;1.50;100.00
4398;BME280;2213;49.720;7.296;2024-01-30T00:09:40;99381.16;;;1.44;100.00
4398;BME280;2213;49.720;7.296;2024-01-30T00:12:09;99378.25;;;1.36;100.00
4398;BME280;2213;49.720;7.296;2024-01-30T00:14:41;99382.00;;;1.44;100.00
4398;BME280;2213;49.720;7.296;2024-01-30T00:17:10;99384.66;;;1.43;100.00
4398;BME280;2213;49.720;7.296;2024-01-30T00:19:39;99377.88;;;1.42;100.00
4398;BME280;2213;49.720;7.296;2024-01-30T00:22:07;99381.09;;;1.45;100.00
4398;BME280;2213;49.720;7.296;2024-01-30T00:24:36;99370.94;;;1.42;100.00
4398;BME280;2213;49.720;7.296;2024-01-30T00:27:05;99377.44;;;1.35;100.00
4398;BME280;2213;49.720;7.296;2024-01-30T00:29:33;99372.59;;;1.43;100.00
4398;BME280;2213;49.720;7.296;2024-01-30T00:32:04;99378.69;;;1.42;100.00
4398;BME280;2213;49.720;7.296;2024-01-30T00:34:33;99373.72;;;1.39;100.00
4398;BME280;2213;49.720;7.296;2024-01-30T00:37:02;99365.06;;;1.40;100.00
4398;BME280;2213;49.720;7.296;2024-01-30T00:39:30;99374.56;;;1.40;100.00
4398;BME280;2213;49.720;7.296;2024-01-30T00:41:59;99364.34;;;1.38;100.00
4398;BME280;2213;49.720;7.296;2024-01-30T00:44:28;99368.75;;;1.36;100.00
4398;BME280;2213;49.720;7.296;2024-01-30T00:46:56;99367.03;;;1.37;100.00
4398;BME280;2213;49.720;7.296;2024-01-30T00:49:26;99378.00;;;1.26;100.00
4398;BME280;2213;49.720;7.296;2024-01-30T00:51:55;99377.53;;;1.34;100.00
4398;BME280;2213;49.720;7.296;2024-01-30T00:54:24;99374.78;;;1.23;100.00
4398;BME280;2213;49.720;7.296;2024-01-30T00:56:53;99370.47;;;1.23;100.00
4398;BME280;2213;49.720;7.296;2024-01-30T00:59:21;99374.50;;;1.27;100.00
4398;BME280;2213;49.720;7.296;2024-01-30T01:01:50;99369.16;;;1.30;100.00
4398;BME280;2213;49.720;7.296;2024-01-30T01:04:19;99372.22;;;1.23;100.00
4398;BME280;2213;49.720;7.296;2024-01-30T01:06:50;99369.34;;;1.27;100.00
4398;BME280;2213;49.720;7.296;2024-01-30T01:09:18;99369.88;;;1.32;100.00
4398;BME280;2213;49.720;7.296;2024-01-30T01:11:47;99368.13;;;1.33;100.00
4398;BME280;2213;49.720;7.296;2024-01-30T01:14:16;99370.81;;;1.31;100.00
4398;BME280;2213;49.720;7.296;2024-01-30T01:16:45;99368.97;;;1.33;100.00
4398;BME280;2213;49.720;7.296;2024-01-30T01:19:13;99364.00;;;1.30;100.00
4398;BME280;2213;49.720;7.296;2024-01-30T01:21:42;99364.19;;;1.27;100.00
4398;BME280;2213;49.720;7.296;2024-01-30T01:24:12;99358.22;;;1.27;100.00
4398;BME280;2213;49.720;7.296;2024-01-30T01:39:01;99362.19;;;1.18;100.00
4398;BME280;2213;49.720;7.296;2024-01-30T01:41:32;99365.38;;;1.22;100.00
4398;BME280;2213;49.720;7.296;2024-01-30T01:44:01;99366.53;;;1.18;100.00
4398;BME280;2213;49.720;7.296;2024-01-30T01:46:33;99365.06;;;1.14;100.00
4398;BME280;2213;49.720;7.296;2024-01-30T01:49:04;99363.97;;;1.18;100.00
4398;BME280;2213;49.720;7.296;2024-01-30T01:51:36;99365.97;;;1.13;100.00
4398;BME280;2213;49.720;7.296;2024-01-30T01:54:06;99370.09;;;1.15;100.00
4398;BME280;2213;49.720;7.296;2024-01-30T01:56:37;99363.13;;;1.17;100.00
4398;BME280;2213;49.720;7.296;2024-01-30T01:59:08;99373.22;;;1.20;100.00
4398;BME280;2213;49.720;7.296;2024-01-30T02:01:37;99362.50;;;1.14;100.00
4398;BME280;2213;49.720;7.296;2024-01-30T02:04:08;99366.91;;;0.97;100.00
4398;BME280;2213;49.720;7.296;2024-01-30T02:06:38;99364.06;;;1.02;100.00
4398;BME280;2213;49.720;7.296;2024-01-30T02:09:07;99358.72;;;1.05;100.00
4398;BME280;2213;49.720;7.296;2024-01-30T02:11:37;99367.72;;;1.12;100.00
4398;BME280;2213;49.720;7.296;2024-01-30T02:14:06;99364.50;;;1.09;100.00
4398;BME280;2213;49.720;7.296;2024-01-30T02:16:35;99360.66;;;1.01;100.00
4398;BME280;2213;49.720;7.296;2024-01-30T02:19:03;99367.56;;;1.01;100.00
4398;BME280;2213;49.720;7.296;2024-01-30T02:21:34;99366.13;;;0.97;100.00
4398;BME280;2213;49.720;7.296;2024-01-30T02:24:04;99352.69;;;0.92;100.00
4398;BME280;2213;49.720;7.296;2024-01-30T02:26:33;99357.81;;;0.92;100.00
4398;BME280;2213;49.720;7.296;2024-01-30T02:29:01;99359.69;;;0.90;100.00
4398;BME280;2213;49.720;7.296;2024-01-30T02:31:30;99355.06;;;0.95;100.00
4398;BME280;2213;49.720;7.296;2024-01-30T02:33:58;99363.81;;;0.92;100.00
4398;BME280;2213;49.720;7.296;2024-01-30T02:36:27;99360.47;;;0.90;100.00
4398;BME280;2213;49.720;7.296;2024-01-30T02:38:57;99356.75;;;0.82;100.00
4398;BME280;2213;49.720;7.296;2024-01-30T02:41:25;99366.28;;;0.94;100.00
4398;BME280;2213;49.720;7.296;2024-01-30T02:43:54;99360.22;;;0.95;100.00
4398;BME280;2213;49.720;7.296;2024-01-30T02:46:23;99359.84;;;0.87;100.00
4398;BME280;2213;49.720;7.296;2024-01-30T02:48:51;99354.63;;;0.88;100.00
4398;BME280;2213;49.720;7.296;2024-01-30T02:51:20;99353.59;;;0.91;100.00
4398;BME280;2213;49.720;7.296;2024-01-30T02:53:49;99352.88;;;0.89;100.00
4398;BME280;2213;49.720;7.296;2024-01-30T02:56:19;99357.09;;;0.90;100.00
4398;BME280;2213;49.720;7.296;2024-01-30T02:58:47;99352.13;;;0.87;100.00
4398;BME280;2213;49.720;7.296;2024-01-30T03:01:16;99352.50;;;0.81;100.00
4398;BME280;2213;49.720;7.296;2024-01-30T03:03:45;99353.25;;;0.83;100.00
4398;BME280;2213;49.720;7.296;2024-01-30T03:06:14;99349.75;;;0.84;100.00
4398;BME280;2213;49.720;7.296;2024-01-30T03:08:44;99353.44;;;0.80;100.00
4398;BME280;2213;49.720;7.296;2024-01-30T03:11:13;99350.22;;;0.76;100.00
4398;BME280;2213;49.720;7.296;2024-01-30T03:13:42;99354.34;;;0.79;100.00
4398;BME280;2213;49.720;7.296;2024-01-30T03:16:11;99347.28;;;0.82;100.00
4398;BME280;2213;49.720;7.296;2024-01-30T03:18:40;99357.66;;;0.81;100.00
4398;BME280;2213;49.720;7.296;2024-01-30T03:21:08;99352.69;;;0.78;100.00
4398;BME280;2213;49.720;7.296;2024-01-30T03:23:37;99359.13;;;0.85;100.00
4398;BME280;2213;49.720;7.296;2024-01-30T03:26:05;99352.31;;;0.84;100.00
4398;BME280;2213;49.720;7.296;2024-01-30T03:28:34;99352.94;;;0.87;100.00
4398;BME280;2213;49.720;7.296;2024-01-30T03:31:04;99356.75;;;0.82;100.00
4398;BME280;2213;49.720;7.296;2024-01-30T03:33:32;99356.03;;;0.80;100.00
4398;BME280;2213;49.720;7.296;2024-01-30T03:36:04;99351.03;;;0.77;100.00
4398;BME280;2213;49.720;7.296;2024-01-30T03:38:33;99352.88;;;0.75;100.00
4398;BME280;2213;49.720;7.296;2024-01-30T03:41:02;99352.31;;;0.70;100.00
4398;BME280;2213;49.720;7.296;2024-01-30T03:43:31;99358.22;;;0.72;100.00
4398;BME280;2213;49.720;7.296;2024-01-30T03:46:01;99343.69;;;0.71;100.00
4398;BME280;2213;49.720;7.296;2024-01-30T03:48:31;99353.16;;;0.70;100.00
4398;BME280;2213;49.720;7.296;2024-01-30T03:50:59;99347.28;;;0.68;100.00
4398;BME280;2213;49.720;7.296;2024-01-30T03:53:28;99352.88;;;0.61;100.00
4398;BME280;2213;49.720;7.296;2024-01-30T03:55:56;99351.97;;;0.62;100.00
4398;BME280;2213;49.720;7.296;2024-01-30T03:58:25;99344.97;;;0.64;100.00
4398;BME280;2213;49.720;7.296;2024-01-30T04:00:52;99343.44;;;0.61;100.00
4398;BME280;2213;49.720;7.296;2024-01-30T04:03:21;99345.44;;;0.56;100.00
4398;BME280;2213;49.720;7.296;2024-01-30T04:05:51;99344.06;;;0.50;100.00
4398;BME280;2213;49.720;7.296;2024-01-30T04:08:20;99335.59;;;0.63;100.00
4398;BME280;2213;49.720;7.296;2024-01-30T04:10:49;99334.69;;;0.64;100.00
4398;BME280;2213;49.720;7.296;2024-01-30T04:13:17;99338.28;;;0.61;100.00
4398;BME280;2213;49.720;7.296;2024-01-30T04:15:46;99333.50;;;0.55;100.00
4398;BME280;2213;49.720;7.296;2024-01-30T04:18:15;99347.28;;;0.54;100.00
4398;BME280;2213;49.720;7.296;2024-01-30T04:20:45;99338.00;;;0.66;100.00
4398;BME280;2213;49.720;7.296;2024-01-30T04:23:14;99348.94;;;0.69;100.00
4398;BME280;2213;49.720;7.296;2024-01-30T04:25:43;99346.44;;;0.68;100.00
4398;BME280;2213;49.720;7.296;2024-01-30T04:28:12;99347.09;;;0.71;100.00
4398;BME280;2213;49.720;7.296;2024-01-30T04:30:40;99341.88;;;0.73;100.00
4398;BME280;2213;49.720;7.296;2024-01-30T04:33:10;99349.28;;;0.77;100.00
4398;BME280;2213;49.720;7.296;2024-01-30T04:35:38;99348.47;;;0.77;100.00
4398;BME280;2213;49.720;7.296;2024-01-30T04:38:07;99345.09;;;0.76;100.00
4398;BME280;2213;49.720;7.296;2024-01-30T04:40:37;99343.16;;;0.80;100.00
4398;BME280;2213;49.720;7.296;2024-01-30T04:43:05;99346.63;;;0.79;100.00
4398;BME280;2213;49.720;7.296;2024-01-30T04:45:34;99355.06;;;0.81;100.00
4398;BME280;2213;49.720;7.296;2024-01-30T04:48:03;99351.78;;;0.79;100.00
4398;BME280;2213;49.720;7.296;2024-01-30T04:50:31;99351.97;;;0.76;100.00
4398;BME280;2213;49.720;7.296;2024-01-30T04:53:00;99353.53;;;0.78;100.00
4398;BME280;2213;49.720;7.296;2024-01-30T04:55:28;99354.34;;;0.79;100.00
4398;BME280;2213;49.720;7.296;2024-01-30T04:57:58;99355.28;;;0.78;100.00
4398;BME280;2213;49.720;7.296;2024-01-30T05:00:27;99350.13;;;0.78;100.00
4398;BME280;2213;49.720;7.296;2024-01-30T05:02:56;99357.94;;;0.76;100.00
4398;BME280;2213;49.720;7.296;2024-01-30T05:05:24;99357.13;;;0.76;100.00
4398;BME280;2213;49.720;7.296;2024-01-30T05:07:53;99357.84;;;0.78;100.00
4398;BME280;2213;49.720;7.296;2024-01-30T05:10:21;99358.59;;;0.80;100.00
4398;BME280;2213;49.720;7.296;2024-01-30T05:12:50;99351.97;;;0.76;100.00
4398;BME280;2213;49.720;7.296;2024-01-30T05:15:21;99351.97;;;0.76;100.00
4398;BME280;2213;49.720;7.296;2024-01-30T05:17:49;99351.22;;;0.74;100.00
4398;BME280;2213;49.720;7.296;2024-01-30T05:20:19;99359.06;;;0.72;100.00
4398;BME280;2213;49.720;7.296;2024-01-30T05:22:48;99352.44;;;0.68;100.00
4398;BME280;2213;49.720;7.296;2024-01-30T05:25:17;99358.94;;;0.74;100.00
4398;BME280;2213;49.720;7.296;2024-01-30T05:27:45;99354.63;;;0.74;100.00
4398;BME280;2213;49.720;7.296;2024-01-30T05:30:14;99357.31;;;0.73;100.00
4398;BME280;2213;49.720;7.296;2024-01-30T05:32:44;99358.88;;;0.75;100.00
4398;BME280;2213;49.720;7.296;2024-01-30T05:35:13;99358.31;;;0.70;100.00
4398;BME280;2213;49.720;7.296;2024-01-30T05:37:41;99354.91;;;0.70;100.00
4398;BME280;2213;49.720;7.296;2024-01-30T05:40:11;99355.66;;;0.72;100.00
4398;BME280;2213;49.720;7.296;2024-01-30T05:42:40;99353.16;;;0.70;100.00
4398;BME280;2213;49.720;7.296;2024-01-30T05:45:09;99352.97;;;0.73;100.00
4398;BME280;2213;49.720;7.296;2024-01-30T05:47:37;99355.47;;;0.75;100.00
4398;BME280;2213;49.720;7.296;2024-01-30T05:50:09;99347.19;;;0.70;100.00
4398;BME280;2213;49.720;7.296;2024-01-30T05:52:38;99349.75;;;0.70;100.00
4398;BME280;2213;49.720;7.296;2024-01-30T05:55:07;99352.31;;;0.70;100.00
4398;BME280;2213;49.720;7.296;2024-01-30T05:57:36;99349.88;;;0.68;100.00
4398;BME280;2213;49.720;7.296;2024-01-30T06:00:07;99352.44;;;0.68;100.00
4398;BME280;2213;49.720;7.296;2024-01-30T06:02:36;99352.31;;;0.70;100.00
4398;BME280;2213;49.720;7.296;2024-01-30T06:05:06;99347.38;;;0.67;100.00
4398;BME280;2213;49.720;7.296;2024-01-30T06:07:35;99350.69;;;0.69;100.00
4398;BME280;2213;49.720;7.296;2024-01-30T06:10:06;99360.22;;;0.67;100.00
4398;BME280;2213;49.720;7.296;2024-01-30T06:12:36;99358.03;;;0.61;100.00
4398;BME280;2213;49.720;7.296;2024-01-30T06:15:06;99353.06;;;0.58;100.00
4398;BME280;2213;49.720;7.296;2024-01-30T06:17:34;99347.56;;;0.64;100.00
4398;BME280;2213;49.720;7.296;2024-01-30T06:20:05;99349.22;;;0.65;100.00
4398;BME280;2213;49.720;7.296;2024-01-30T06:22:37;99351.03;;;0.63;100.00
4398;BME280;2213;49.720;7.296;2024-01-30T06:25:06;99353.72;;;0.61;100.00
4398;BME280;2213;49.720;7.296;2024-01-30T06:27:35;99350.31;;;0.61;100.00
4398;BME280;2213;49.720;7.296;2024-01-30T06:30:05;99344.25;;;0.62;100.00
4398;BME280;2213;49.720;7.296;2024-01-30T06:32:35;99352.06;;;0.60;100.00
4398;BME280;2213;49.720;7.296;2024-01-30T06:35:06;99354.75;;;0.59;100.00
4398;BME280;2213;49.720;7.296;2024-01-30T06:37:36;99359.88;;;0.59;100.00
4398;BME280;2213;49.720;7.296;2024-01-30T06:40:06;99358.94;;;0.60;100.00
4398;BME280;2213;49.720;7.296;2024-01-30T06:42:35;99360.88;;;0.56;100.00
4398;BME280;2213;49.720;7.296;2024-01-30T06:45:05;99364.09;;;0.60;100.00
4398;BME280;2213;49.720;7.296;2024-01-30T06:47:34;99365.84;;;0.59;100.00
4398;BME280;2213;49.720;7.296;2024-01-30T06:50:02;99371.75;;;0.61;100.00
4398;BME280;2213;49.720;7.296;2024-01-30T06:52:31;99362.47;;;0.59;100.00
4398;BME280;2213;49.720;7.296;2024-01-30T06:55:01;99365.03;;;0.59;100.00
4398;BME280;2213;49.720;7.296;2024-01-30T06:57:30;99370.00;;;0.62;100.00
4398;BME280;2213;49.720;7.296;2024-01-30T06:59:58;99361.34;;;0.63;100.00
4398;BME280;2213;49.720;7.296;2024-01-30T07:02:27;99363.00;;;0.64;100.00
4398;BME280;2213;49.720;7.296;2024-01-30T07:04:56;99358.69;;;0.64;100.00
4398;BME280;2213;49.720;7.296;2024-01-30T07:07:24;99363.91;;;0.63;100.00
4398;BME280;2213;49.720;7.296;2024-01-30T07:09:53;99364.66;;;0.65;100.00
4398;BME280;2213;49.720;7.296;2024-01-30T07:12:25;99372.28;;;0.66;100.00
4398;BME280;2213;49.720;7.296;2024-01-30T07:14:54;99373.09;;;0.67;100.00
4398;BME280;2213;49.720;7.296;2024-01-30T07:17:23;99371.47;;;0.66;100.00
4398;BME280;2213;49.720;7.296;2024-01-30T07:19:52;99379.19;;;0.66;100.00
4398;BME280;2213;49.720;7.296;2024-01-30T07:22:21;99374.03;;;0.66;100.00
4398;BME280;2213;49.720;7.296;2024-01-30T07:24:49;99372.91;;;0.70;100.00
4398;BME280;2213;49.720;7.296;2024-01-30T07:27:19;99359.13;;;0.71;100.00
4398;BME280;2213;49.720;7.296;2024-01-30T07:29:50;99362.28;;;0.76;100.00
4398;BME280;2213;49.720;7.296;2024-01-30T07:32:18;99372.66;;;0.74;100.00
4398;BME280;2213;49.720;7.296;2024-01-30T07:34:47;99377.59;;;0.77;100.00
4398;BME280;2213;49.720;7.296;2024-01-30T07:37:33;99378.34;;;0.79;100.00
4398;BME280;2213;49.720;7.296;2024-01-30T07:40:02;99383.50;;;0.79;100.00
4398;BME280;2213;49.720;7.296;2024-01-30T07:42:32;99395.44;;;0.80;100.00
4398;BME280;2213;49.720;7.296;2024-01-30T07:45:02;99382.47;;;0.82;100.00
4398;BME280;2213;49.720;7.296;2024-01-30T07:47:30;99382.94;;;0.88;100.00
4398;BME280;2213;49.720;7.296;2024-01-30T07:49:59;99389.75;;;0.89;100.00
4398;BME280;2213;49.720;7.296;2024-01-30T07:52:28;99394.25;;;0.86;100.00
4398;BME280;2213;49.720;7.296;2024-01-30T07:54:57;99395.88;;;0.87;100.00
4398;BME280;2213;49.720;7.296;2024-01-30T07:57:25;99397.56;;;0.88;100.00
4398;BME280;2213;49.720;7.296;2024-01-30T07:59:54;99387.63;;;0.96;100.00
4398;BME280;2213;49.720;7.296;2024-01-30T08:02:26;99394.31;;;0.98;100.00
4398;BME280;2213;49.720;7.296;2024-01-30T08:04:54;99387.03;;;1.05;100.00
4398;BME280;2213;49.720;7.296;2024-01-30T08:07:23;99383.00;;;1.01;100.00
4398;BME280;2213;49.720;7.296;2024-01-30T08:09:52;99391.09;;;1.09;100.00
4398;BME280;2213;49.720;7.296;2024-01-30T08:12:21;99392.75;;;1.10;100.00
4398;BME280;2213;49.720;7.296;2024-01-30T08:14:49;99390.72;;;1.15;100.00
4398;BME280;2213;49.720;7.296;2024-01-30T08:17:18;99398.25;;;1.18;100.00
4398;BME280;2213;49.720;7.296;2024-01-30T08:19:48;99397.13;;;1.22;100.00
4398;BME280;2213;49.720;7.296;2024-01-30T08:22:17;99404.66;;;1.25;100.00
4398;BME280;2213;49.720;7.296;2024-01-30T08:24:45;99399.25;;;1.30;100.00
4398;BME280;2213;49.720;7.296;2024-01-30T08:27:14;99397.50;;;1.30;100.00
4398;BME280;2213;49.720;7.296;2024-01-30T08:29:43;99399.25;;;1.30;100.00
4398;BME280;2213;49.720;7.296;2024-01-30T08:32:11;99392.25;;;1.32;100.00
4398;BME280;2213;49.720;7.296;2024-01-30T08:34:40;99389.28;;;1.38;100.00
4398;BME280;2213;49.720;7.296;2024-01-30T08:37:10;99393.41;;;1.40;100.00
4398;BME280;2213;49.720;7.296;2024-01-30T08:39:39;99401.06;;;1.42;100.00
4398;BME280;2213;49.720;7.296;2024-01-30T08:42:08;99405.72;;;1.49;100.00
4398;BME280;2213;49.720;7.296;2024-01-30T08:44:37;99393.38;;;1.55;100.00
4398;BME280;2213;49.720;7.296;2024-01-30T08:47:06;99394.94;;;1.57;100.00
4398;BME280;2213;49.720;7.296;2024-01-30T08:49:34;99396.50;;;1.60;100.00
4398;BME280;2213;49.720;7.296;2024-01-30T08:52:03;99394.66;;;1.62;100.00
4398;BME280;2213;49.720;7.296;2024-01-30T08:54:34;99394.03;;;1.71;100.00
4398;BME280;2213;49.720;7.296;2024-01-30T08:57:03;99390.56;;;1.72;100.00
4398;BME280;2213;49.720;7.296;2024-01-30T08:59:32;99395.31;;;1.78;100.00
4398;BME280;2213;49.720;7.296;2024-01-30T09:02:01;99382.22;;;1.81;100.00
4398;BME280;2213;49.720;7.296;2024-01-30T09:04:39;99389.78;;;1.84;100.00
4398;BME280;2213;49.720;7.296;2024-01-30T09:07:09;99394.72;;;1.87;100.00
4398;BME280;2213;49.720;7.296;2024-01-30T09:09:40;99397.19;;;1.88;100.00
4398;BME280;2213;49.720;7.296;2024-01-30T09:12:09;99399.47;;;1.93;100.00
4398;BME280;2213;49.720;7.296;2024-01-30T09:14:40;99395.03;;;1.95;100.00
4398;BME280;2213;49.720;7.296;2024-01-30T09:17:09;99398.88;;;2.02;100.00
4398;BME280;2213;49.720;7.296;2024-01-30T09:19:38;99389.31;;;2.04;100.00
4398;BME280;2213;49.720;7.296;2024-01-30T09:22:07;99395.19;;;2.06;100.00
4398;BME280;2213;49.720;7.296;2024-01-30T09:24:35;99399.94;;;2.12;100.00
4398;BME280;2213;49.720;7.296;2024-01-30T09:27:05;99397.75;;;2.19;100.00
4398;BME280;2213;49.720;7.296;2024-01-30T09:29:34;99399.53;;;2.18;100.00
4398;BME280;2213;49.720;7.296;2024-01-30T09:32:05;99398.50;;;2.21;100.00
4398;BME280;2213;49.720;7.296;2024-01-30T09:34:36;99398.09;;;2.27;100.00
4398;BME280;2213;49.720;7.296;2024-01-30T09:37:07;99402.13;;;2.31;100.00
4398;BME280;2213;49.720;7.296;2024-01-30T09:39:35;99399.97;;;2.37;100.00
4398;BME280;2213;49.720;7.296;2024-01-30T09:42:18;99409.06;;;2.43;100.00
4398;BME280;2213;49.720;7.296;2024-01-30T09:44:51;99404.41;;;2.48;100.00
4398;BME280;2213;49.720;7.296;2024-01-30T09:47:22;99414.44;;;2.52;100.00
4398;BME280;2213;49.720;7.296;2024-01-30T09:49:51;99409.78;;;2.58;100.00
4398;BME280;2213;49.720;7.296;2024-01-30T09:52:20;99414.56;;;2.64;100.00
4398;BME280;2213;49.720;7.296;2024-01-30T09:54:51;99407.31;;;2.69;100.00
4398;BME280;2213;49.720;7.296;2024-01-30T09:57:21;99420.75;;;2.74;100.00
4398;BME280;2213;49.720;7.296;2024-01-30T09:59:50;99424.66;;;2.79;100.00
4398;BME280;2213;49.720;7.296;2024-01-30T10:02:21;99420.81;;;2.85;100.00
4398;BME280;2213;49.720;7.296;2024-01-30T10:04:51;99425.59;;;2.91;100.00
4398;BME280;2213;49.720;7.296;2024-01-30T10:07:20;99418.34;;;2.96;100.00
4398;BME280;2213;49.720;7.296;2024-01-30T10:09:49;99428.16;;;3.03;100.00
4398;BME280;2213;49.720;7.296;2024-01-30T10:12:20;99419.88;;;3.11;100.00
4398;BME280;2213;49.720;7.296;2024-01-30T10:14:49;99417.78;;;3.16;100.00
4398;BME280;2213;49.720;7.296;2024-01-30T10:17:17;99409.50;;;3.24;100.00
4398;BME280;2213;49.720;7.296;2024-01-30T10:19:59;99410.72;;;3.31;100.00
4398;BME280;2213;49.720;7.296;2024-01-30T10:22:29;99411.94;;;3.38;100.00
4398;BME280;2213;49.720;7.296;2024-01-30T10:24:58;99420.91;;;3.45;100.00
4398;BME280;2213;49.720;7.296;2024-01-30T10:27:33;99404.16;;;3.50;100.00
4398;BME280;2213;49.720;7.296;2024-01-30T10:30:02;99411.34;;;3.58;100.00
4398;BME280;2213;49.720;7.296;2024-01-30T10:32:31;99408.34;;;3.64;100.00
4398;BME280;2213;49.720;7.296;2024-01-30T10:35:00;99409.44;;;3.73;100.00
4398;BME280;2213;49.720;7.296;2024-01-30T10:37:30;99399.59;;;3.78;100.00
4398;BME280;2213;49.720;7.296;2024-01-30T10:40:03;99399.16;;;3.84;100.00
4398;BME280;2213;49.720;7.296;2024-01-30T10:42:37;99401.19;;;3.91;100.00
4398;BME280;2213;49.720;7.296;2024-01-30T10:45:08;99401.44;;;3.99;100.00
4398;BME280;2213;49.720;7.296;2024-01-30T10:47:42;99396.44;;;4.09;100.00
4398;BME280;2213;49.720;7.296;2024-01-30T10:50:12;99401.00;;;4.17;100.00
4398;BME280;2213;49.720;7.296;2024-01-30T10:52:42;99404.81;;;4.24;100.00
4398;BME280;2213;49.720;7.296;2024-01-30T10:55:11;99403.31;;;4.32;100.00
4398;BME280;2213;49.720;7.296;2024-01-30T10:57:41;99404.50;;;4.39;100.00
4398;BME280;2213;49.720;7.296;2024-01-30T11:00:13;99401.94;;;4.50;100.00
4398;BME280;2213;49.720;7.296;2024-01-30T11:02:45;99385.69;;;4.60;100.00
4398;BME280;2213;49.720;7.296;2024-01-30T11:05:14;99382.53;;;4.67;100.00
4398;BME280;2213;49.720;7.296;2024-01-30T11:07:43;99382.53;;;4.78;100.00
4398;BME280;2213;49.720;7.296;2024-01-30T11:10:12;99372.97;;;4.90;100.00
4398;BME280;2213;49.720;7.296;2024-01-30T11:12:46;99375.91;;;5.07;100.00
4398;BME280;2213;49.720;7.296;2024-01-30T11:15:16;99372.50;;;5.18;100.00
4398;BME280;2213;49.720;7.296;2024-01-30T11:17:50;99374.91;;;5.42;100.00
4398;BME280;2213;49.720;7.296;2024-01-30T11:20:21;99381.59;;;5.55;100.00
4398;BME280;2213;49.720;7.296;2024-01-30T11:22:53;99375.44;;;5.68;100.00
4398;BME280;2213;49.720;7.296;2024-01-30T11:25:23;99368.66;;;5.76;100.00
4398;BME280;2213;49.720;7.296;2024-01-30T11:27:55;99381.53;;;5.89;100.00
4398;BME280;2213;49.720;7.296;2024-01-30T11:30:26;99374.97;;;6.05;100.00
4398;BME280;2213;49.720;7.296;2024-01-30T11:33:06;99366.84;;;6.20;100.00
4398;BME280;2213;49.720;7.296;2024-01-30T11:35:37;99364.00;;;6.23;100.00
4398;BME280;2213;49.720;7.296;2024-01-30T11:38:08;99365.25;;;6.28;100.00
4398;BME280;2213;49.720;7.296;2024-01-30T11:40:38;99364.78;;;6.34;100.00
4398;BME280;2213;49.720;7.296;2024-01-30T11:43:09;99370.13;;;6.42;100.00
4398;BME280;2213;49.720;7.296;2024-01-30T11:45:39;99363.25;;;6.52;100.00
4398;BME280;2213;49.720;7.296;2024-01-30T11:48:08;99368.75;;;6.59;100.00
4398;BME280;2213;49.720;7.296;2024-01-30T11:50:39;99357.56;;;6.68;100.00
4398;BME280;2213;49.720;7.296;2024-01-30T11:53:08;99355.69;;;6.80;100.00
4398;BME280;2213;49.720;7.296;2024-01-30T11:55:37;99344.06;;;6.84;100.00
4398;BME280;2213;49.720;7.296;2024-01-30T11:58:06;99331.94;;;6.94;100.00
4398;BME280;2213;49.720;7.296;2024-01-30T12:00:36;99342.50;;;7.02;100.00
4398;BME280;2213;49.720;7.296;2024-01-30T12:03:05;99341.28;;;7.06;100.00
4398;BME280;2213;49.720;7.296;2024-01-30T12:05:34;99336.38;;;7.22;100.00
4398;BME280;2213;49.720;7.296;2024-01-30T12:08:04;99337.75;;;7.26;100.00
4398;BME280;2213;49.720;7.296;2024-01-30T12:10:34;99346.66;;;7.33;100.00
4398;BME280;2213;49.720;7.296;2024-01-30T12:13:03;99342.03;;;7.37;100.00
4398;BME280;2213;49.720;7.296;2024-01-30T12:15:32;99338.88;;;7.43;100.00
4398;BME280;2213;49.720;7.296;2024-01-30T12:18:06;99324.53;;;7.48;100.00
4398;BME280;2213;49.720;7.296;2024-01-30T12:20:35;99328.22;;;7.55;100.00
4398;BME280;2213;49.720;7.296;2024-01-30T12:23:04;99327.28;;;7.66;100.00
4398;BME280;2213;49.720;7.296;2024-01-30T12:25:33;99317.97;;;7.73;100.00
4398;BME280;2213;49.720;7.296;2024-01-30T12:28:02;99312.31;;;7.78;100.00
4398;BME280;2213;49.720;7.296;2024-01-30T12:30:31;99315.34;;;7.83;100.00
4398;BME280;2213;49.720;7.296;2024-01-30T12:33:00;99309.56;;;7.89;100.00
4398;BME280;2213;49.720;7.296;2024-01-30T12:35:34;99310.94;;;7.93;100.00
4398;BME280;2213;49.720;7.296;2024-01-30T12:38:09;99309.44;;;8.00;100.00
4398;BME280;2213;49.720;7.296;2024-01-30T12:40:38;99311.91;;;8.01;100.00
4398;BME280;2213;49.720;7.296;2024-01-30T12:43:08;99316.00;;;8.04;100.00
4398;BME280;2213;49.720;7.296;2024-01-30T12:45:37;99312.00;;;8.09;100.00
4398;BME280;2213;49.720;7.296;2024-01-30T12:48:06;99313.63;;;8.20;100.00
4398;BME280;2213;49.720;7.296;2024-01-30T12:50:36;99318.00;;;8.20;100.00
4398;BME280;2213;49.720;7.296;2024-01-30T12:53:05;99317.19;;;8.19;100.00
4398;BME280;2213;49.720;7.296;2024-01-30T12:55:34;99317.06;;;8.21;100.00
4398;BME280;2213;49.720;7.296;2024-01-30T12:58:03;99308.97;;;8.24;100.00
4398;BME280;2213;49.720;7.296;2024-01-30T13:00:33;99305.53;;;8.23;100.00
4398;BME280;2213;49.720;7.296;2024-01-30T13:03:03;99307.84;;;8.26;100.00
4398;BME280;2213;49.720;7.296;2024-01-30T13:05:32;99303.09;;;8.31;100.00
4398;BME280;2213;49.720;7.296;2024-01-30T13:08:02;99309.66;;;8.35;100.00
4398;BME280;2213;49.720;7.296;2024-01-30T13:10:30;99307.72;;;8.37;100.00
4398;BME280;2213;49.720;7.296;2024-01-30T13:12:59;99299.91;;;8.37;100.00
4398;BME280;2213;49.720;7.296;2024-01-30T13:15:27;99311.31;;;8.36;100.00
4398;BME280;2213;49.720;7.296;2024-01-30T13:17:56;99303.34;;;8.38;100.00
4398;BME280;2213;49.720;7.296;2024-01-30T13:20:25;99304.97;;;8.39;100.00
4398;BME280;2213;49.720;7.296;2024-01-30T13:22:53;99311.56;;;8.43;100.00
4398;BME280;2213;49.720;7.296;2024-01-30T13:25:23;99313.34;;;8.42;100.00
4398;BME280;2213;49.720;7.296;2024-01-30T13:27:52;99309.50;;;8.46;100.00
4398;BME280;2213;49.720;7.296;2024-01-30T13:30:21;99317.31;;;8.46;100.00
4398;BME280;2213;49.720;7.296;2024-01-30T13:32:49;99319.75;;;8.48;100.00
4398;BME280;2213;49.720;7.296;2024-01-30T13:35:18;99309.22;;;8.49;100.00
4398;BME280;2213;49.720;7.296;2024-01-30T13:37:46;99313.31;;;8.52;100.00
4398;BME280;2213;49.720;7.296;2024-01-30T13:40:16;99313.44;;;8.50;100.00
4398;BME280;2213;49.720;7.296;2024-01-30T13:42:46;99310.81;;;8.50;100.00
4398;BME280;2213;49.720;7.296;2024-01-30T13:45:15;99316.75;;;8.52;100.00
4398;BME280;2213;49.720;7.296;2024-01-30T13:47:43;99318.53;;;8.52;100.00